Time;durP1;ratioP1;P1;durP2;ratioP2;P2;SDS_P1;SDS_P2;PMS_P1;PMS_P2;Temp;Humidity;BMP_temperature;BMP_pressure;BME280_temperature;BME280_humidity;BME280_pressure;Samples;Min_cycle;Max_cycle;Signal;HPM_P1;HPM_P2
2023/07/09 00:00:53;;;;;;;9.70;5.90;;;;;;;;;;107845;1251;22563;-79
2023/07/09 00:03:39;;;;;;;7.50;5.30;;;;;;;;;;107902;1251;22530;-81
2023/07/09 00:06:07;;;;;;;10.40;6.00;;;;;;;;;;107860;1257;25427;-79
2023/07/09 00:08:33;;;;;;;7.90;5.40;;;;;;;;;;107860;1251;22514;-80
2023/07/09 00:11:00;;;;;;;8.60;5.00;;;;;;;;;;107889;1251;24397;-80
2023/07/09 00:13:26;;;;;;;8.90;6.20;;;;;;;;;;107934;1251;25048;-79
2023/07/09 00:15:55;;;;;;;10.20;6.90;;;;;;;;;;107879;1251;22624;-79
2023/07/09 00:18:21;;;;;;;8.70;5.60;;;;;;;;;;107912;1251;24291;-79
2023/07/09 00:20:48;;;;;;;7.00;5.40;;;;;;;;;;107890;1249;23448;-80
2023/07/09 00:23:14;;;;;;;8.10;5.50;;;;;;;;;;107479;1251;24237;-79
2023/07/09 00:25:44;;;;;;;9.20;5.70;;;;;;;;;;107473;1251;22527;-79
2023/07/09 00:28:17;;;;;;;8.90;6.10;;;;;;;;;;107539;1251;22759;-79
2023/07/09 00:30:47;;;;;;;9.40;5.70;;;;;;;;;;107378;1250;22520;-79
2023/07/09 00:33:18;;;;;;;9.90;6.00;;;;;;;;;;107374;1252;22643;-80
2023/07/09 00:35:46;;;;;;;8.20;5.30;;;;;;;;;;107468;1251;23751;-79
2023/07/09 00:38:13;;;;;;;8.80;5.40;;;;;;;;;;108231;1251;22998;-79
2023/07/09 00:40:44;;;;;;;6.70;5.20;;;;;;;;;;107470;1251;25314;-79
2023/07/09 00:43:11;;;;;;;8.10;4.80;;;;;;;;;;107495;1254;22534;-79
2023/07/09 00:45:38;;;;;;;7.60;5.10;;;;;;;;;;107351;1253;24362;-78
2023/07/09 00:48:06;;;;;;;9.60;5.30;;;;;;;;;;107510;1251;23004;-79
2023/07/09 00:50:34;;;;;;;8.90;6.30;;;;;;;;;;107345;1251;22657;-79
2023/07/09 00:53:07;;;;;;;11.10;6.90;;;;;;;;;;107383;1251;22988;-79
2023/07/09 00:55:37;;;;;;;8.00;5.10;;;;;;;;;;107473;1251;22669;-79
2023/07/09 00:58:05;;;;;;;9.00;6.50;;;;;;;;;;107488;1251;22511;-79
2023/07/09 01:00:42;;;;;;;8.00;4.70;;;;;;;;;;108731;1251;25218;-79
2023/07/09 01:03:10;;;;;;;6.10;4.70;;;;;;;;;;107546;1251;24370;-80
2023/07/09 01:05:37;;;;;;;10.60;4.90;;;;;;;;;;107821;1251;22521;-80
2023/07/09 01:08:05;;;;;;;8.00;4.60;;;;;;;;;;108123;1251;23158;-80
2023/07/09 01:10:31;;;;;;;6.50;5.00;;;;;;;;;;110614;1251;22378;-81
2023/07/09 01:12:57;;;;;;;13.00;4.80;;;;;;;;;;108996;1251;22632;-80
2023/07/09 01:15:24;;;;;;;6.90;5.00;;;;;;;;;;110731;1251;22194;-80
2023/07/09 01:17:53;;;;;;;8.50;4.70;;;;;;;;;;110782;1251;22336;-81
2023/07/09 01:20:20;;;;;;;8.30;4.50;;;;;;;;;;108670;1252;22531;-79
2023/07/09 01:22:48;;;;;;;6.80;4.90;;;;;;;;;;107882;1250;22555;-80
2023/07/09 01:25:15;;;;;;;9.20;5.30;;;;;;;;;;107953;1254;22579;-80
2023/07/09 01:27:43;;;;;;;10.80;5.80;;;;;;;;;;107940;1251;26467;-80
2023/07/09 01:30:11;;;;;;;8.30;5.10;;;;;;;;;;107999;1251;23228;-80
2023/07/09 01:32:37;;;;;;;8.90;4.60;;;;;;;;;;107955;1251;22584;-80
2023/07/09 01:35:07;;;;;;;6.60;4.20;;;;;;;;;;108002;1251;25374;-80
2023/07/09 01:37:34;;;;;;;7.60;5.30;;;;;;;;;;107928;1251;25388;-80
2023/07/09 01:40:01;;;;;;;6.90;5.20;;;;;;;;;;107991;1251;22577;-79
2023/07/09 01:42:28;;;;;;;8.80;4.80;;;;;;;;;;107495;1251;22510;-78
2023/07/09 01:44:54;;;;;;;6.90;4.90;;;;;;;;;;107436;1254;23765;-79
2023/07/09 01:47:23;;;;;;;8.60;4.60;;;;;;;;;;107471;1254;22551;-79
2023/07/09 01:49:50;;;;;;;6.30;4.50;;;;;;;;;;110715;1250;22537;-79
2023/07/09 01:52:18;;;;;;;9.10;4.60;;;;;;;;;;110720;1251;22314;-79
2023/07/09 01:54:49;;;;;;;9.20;4.50;;;;;;;;;;110238;1251;22662;-79
2023/07/09 01:57:19;;;;;;;9.00;5.10;;;;;;;;;;107398;1251;25375;-79
2023/07/09 01:59:45;;;;;;;8.40;4.80;;;;;;;;;;107491;1251;25447;-79
2023/07/09 02:02:18;;;;;;;10.80;5.20;;;;;;;;;;107394;1252;22520;-78
2023/07/09 02:04:48;;;;;;;7.90;5.50;;;;;;;;;;110736;1251;22742;-79
2023/07/09 02:07:14;;;;;;;7.20;4.80;;;;;;;;;;107788;1250;23773;-80
2023/07/09 02:09:41;;;;;;;7.50;4.50;;;;;;;;;;108142;1251;24168;-79
2023/07/09 02:12:08;;;;;;;7.80;5.80;;;;;;;;;;108376;1251;23609;-79
2023/07/09 02:14:34;;;;;;;11.50;5.50;;;;;;;;;;110657;1251;22352;-80
2023/07/09 02:17:01;;;;;;;7.10;4.90;;;;;;;;;;108969;1251;22579;-79
2023/07/09 02:19:28;;;;;;;6.70;4.80;;;;;;;;;;107997;1251;22536;-79
2023/07/09 02:21:54;;;;;;;6.90;4.70;;;;;;;;;;107991;1251;22521;-79
2023/07/09 02:24:24;;;;;;;7.40;4.80;;;;;;;;;;107954;1251;22556;-79
2023/07/09 02:26:51;;;;;;;6.40;4.50;;;;;;;;;;107834;1251;22685;-79
2023/07/09 02:29:17;;;;;;;8.60;4.50;;;;;;;;;;107969;1251;22681;-79
2023/07/09 02:31:44;;;;;;;5.80;4.10;;;;;;;;;;109162;1250;22130;-79
2023/07/09 02:34:11;;;;;;;9.20;5.40;;;;;;;;;;110608;1251;22314;-80
2023/07/09 02:36:42;;;;;;;7.50;4.40;;;;;;;;;;110723;1251;22307;-80
2023/07/09 02:39:10;;;;;;;9.40;5.70;;;;;;;;;;110765;1251;22433;-80
2023/07/09 02:41:36;;;;;;;7.40;5.40;;;;;;;;;;109342;1250;22619;-80
2023/07/09 02:44:03;;;;;;;6.40;4.50;;;;;;;;;;107857;1251;22459;-79
2023/07/09 02:46:29;;;;;;;10.30;5.00;;;;;;;;;;107465;1249;22531;-79
2023/07/09 02:48:56;;;;;;;10.90;5.40;;;;;;;;;;107415;1252;22525;-80
2023/07/09 02:51:22;;;;;;;6.80;4.70;;;;;;;;;;107965;1251;23277;-79
2023/07/09 02:53:49;;;;;;;6.80;5.00;;;;;;;;;;107958;1251;23874;-79
2023/07/09 02:56:15;;;;;;;15.10;5.30;;;;;;;;;;107455;1253;22704;-79
2023/07/09 02:58:42;;;;;;;7.10;5.20;;;;;;;;;;107460;1251;25334;-79
2023/07/09 03:01:08;;;;;;;9.30;4.80;;;;;;;;;;107469;1253;25215;-79
2023/07/09 03:03:34;;;;;;;7.50;4.90;;;;;;;;;;107449;1254;22527;-79
2023/07/09 03:06:01;;;;;;;10.30;5.00;;;;;;;;;;107431;1251;22616;-79
2023/07/09 03:08:27;;;;;;;14.30;6.10;;;;;;;;;;107986;1251;24209;-79
2023/07/09 03:10:53;;;;;;;5.60;4.20;;;;;;;;;;107938;1252;22551;-79
2023/07/09 03:13:20;;;;;;;6.80;4.00;;;;;;;;;;107972;1251;23817;-79
2023/07/09 03:15:54;;;;;;;6.40;4.40;;;;;;;;;;107993;1251;22558;-80
2023/07/09 03:18:20;;;;;;;9.30;5.10;;;;;;;;;;107924;1251;25374;-79
2023/07/09 03:20:46;;;;;;;7.30;4.90;;;;;;;;;;107457;1251;22540;-79
2023/07/09 03:23:13;;;;;;;7.30;4.60;;;;;;;;;;107516;1251;23115;-79
2023/07/09 03:25:45;;;;;;;7.00;4.60;;;;;;;;;;107444;1251;22810;-79
2023/07/09 03:28:12;;;;;;;7.40;4.70;;;;;;;;;;107864;1251;23064;-79
2023/07/09 03:30:42;;;;;;;7.50;4.80;;;;;;;;;;107966;1252;25508;-80
2023/07/09 03:33:09;;;;;;;9.00;5.00;;;;;;;;;;107982;1251;23048;-80
2023/07/09 03:35:36;;;;;;;7.40;4.80;;;;;;;;;;107914;1253;22576;-80
2023/07/09 03:38:02;;;;;;;6.60;4.50;;;;;;;;;;108022;1252;22536;-80
2023/07/09 03:40:29;;;;;;;6.40;4.40;;;;;;;;;;107959;1251;25545;-80
2023/07/09 03:42:55;;;;;;;7.20;4.80;;;;;;;;;;107967;1254;23340;-80
2023/07/09 03:45:22;;;;;;;13.80;5.00;;;;;;;;;;107982;1252;23287;-80
2023/07/09 03:47:48;;;;;;;8.50;4.90;;;;;;;;;;107903;1251;22600;-80
2023/07/09 03:50:14;;;;;;;8.70;4.30;;;;;;;;;;107962;1253;22518;-80
2023/07/09 03:52:41;;;;;;;6.50;4.60;;;;;;;;;;108009;1251;22613;-80
2023/07/09 03:55:08;;;;;;;6.60;5.00;;;;;;;;;;107947;1251;22610;-80
2023/07/09 03:57:34;;;;;;;7.60;4.30;;;;;;;;;;108002;1254;25314;-80
2023/07/09 04:00:01;;;;;;;7.10;4.20;;;;;;;;;;108011;1252;22562;-80
2023/07/09 04:02:29;;;;;;;7.20;5.00;;;;;;;;;;108327;1251;23023;-80
2023/07/09 04:04:55;;;;;;;8.40;5.00;;;;;;;;;;110153;1254;25298;-80
2023/07/09 04:07:22;;;;;;;12.10;4.60;;;;;;;;;;107973;1253;22521;-80
2023/07/09 04:09:49;;;;;;;6.20;5.60;;;;;;;;;;107954;1251;24362;-80
2023/07/09 04:12:15;;;;;;;8.80;5.20;;;;;;;;;;107498;1251;24197;-80
2023/07/09 04:14:41;;;;;;;9.60;4.80;;;;;;;;;;107933;1251;24211;-80
2023/07/09 04:17:08;;;;;;;5.80;4.70;;;;;;;;;;107925;1251;25394;-80
2023/07/09 04:19:34;;;;;;;4.80;3.80;;;;;;;;;;107938;1251;22644;-79
2023/07/09 04:22:00;;;;;;;6.20;3.60;;;;;;;;;;107930;1251;22768;-80
2023/07/09 04:24:27;;;;;;;4.90;3.80;;;;;;;;;;107947;1252;22701;-80
2023/07/09 04:26:56;;;;;;;5.30;4.00;;;;;;;;;;107981;1252;22527;-80
2023/07/09 04:29:23;;;;;;;6.90;4.70;;;;;;;;;;107957;1251;23131;-80
2023/07/09 04:31:49;;;;;;;10.10;5.40;;;;;;;;;;107907;1252;24212;-80
2023/07/09 04:34:16;;;;;;;7.40;5.50;;;;;;;;;;107962;1251;24282;-80
2023/07/09 04:36:42;;;;;;;7.40;4.50;;;;;;;;;;107911;1252;22699;-80
2023/07/09 04:39:09;;;;;;;5.80;4.80;;;;;;;;;;107927;1251;24224;-80
2023/07/09 04:41:35;;;;;;;5.90;4.30;;;;;;;;;;107977;1252;25504;-80
2023/07/09 04:44:01;;;;;;;5.90;4.20;;;;;;;;;;108060;1251;24281;-80
2023/07/09 04:46:28;;;;;;;7.00;5.00;;;;;;;;;;107895;1252;22659;-80
2023/07/09 04:48:55;;;;;;;6.90;4.70;;;;;;;;;;107927;1252;23627;-80
2023/07/09 04:51:22;;;;;;;7.00;4.10;;;;;;;;;;107935;1251;22648;-80
2023/07/09 04:53:51;;;;;;;6.10;3.90;;;;;;;;;;107966;1251;24348;-80
2023/07/09 04:56:17;;;;;;;;;;;;;;;;;;108137;1251;25484;-80
2023/07/09 04:58:44;;;;;;;8.50;5.40;;;;;;;;;;107795;1253;25510;-80
2023/07/09 05:01:10;;;;;;;5.80;4.90;;;;;;;;;;107891;1253;23840;-80
2023/07/09 05:03:38;;;;;;;6.50;4.50;;;;;;;;;;107912;1252;25490;-80
2023/07/09 05:06:05;;;;;;;6.80;4.70;;;;;;;;;;107934;1251;23240;-80
2023/07/09 05:08:31;;;;;;;11.60;5.50;;;;;;;;;;107940;1255;22546;-80
2023/07/09 05:11:00;;;;;;;5.10;4.10;;;;;;;;;;107961;1252;22578;-80
2023/07/09 05:13:27;;;;;;;8.10;4.30;;;;;;;;;;107961;1252;22777;-80
2023/07/09 05:15:53;;;;;;;8.80;4.60;;;;;;;;;;107899;1255;23152;-80
2023/07/09 05:18:20;;;;;;;5.70;4.20;;;;;;;;;;107947;1252;26364;-80
2023/07/09 05:20:46;;;;;;;6.50;4.10;;;;;;;;;;107905;1253;22517;-80
2023/07/09 05:23:12;;;;;;;5.80;4.30;;;;;;;;;;107944;1252;23242;-80
2023/07/09 05:25:39;;;;;;;7.00;4.70;;;;;;;;;;107902;1252;24223;-80
2023/07/09 05:28:05;;;;;;;7.70;4.90;;;;;;;;;;107757;1253;24201;-80
2023/07/09 05:30:32;;;;;;;8.70;6.10;;;;;;;;;;107933;1252;25387;-80
2023/07/09 05:32:59;;;;;;;6.70;4.80;;;;;;;;;;107906;1255;22585;-80
2023/07/09 05:35:25;;;;;;;7.70;5.50;;;;;;;;;;107918;1255;25518;-80
2023/07/09 05:37:52;;;;;;;7.90;4.80;;;;;;;;;;107983;1252;23611;-80
2023/07/09 05:40:18;;;;;;;5.40;4.00;;;;;;;;;;107916;1255;22544;-80
2023/07/09 05:42:45;;;;;;;6.00;4.80;;;;;;;;;;107949;1251;22540;-80
2023/07/09 05:45:11;;;;;;;6.60;4.90;;;;;;;;;;107852;1252;22532;-80
2023/07/09 05:47:37;;;;;;;7.10;5.00;;;;;;;;;;107855;1255;25465;-80
2023/07/09 05:50:04;;;;;;;6.00;4.90;;;;;;;;;;107942;1255;22526;-80
2023/07/09 05:52:30;;;;;;;5.90;4.90;;;;;;;;;;107843;1253;23301;-81
2023/07/09 05:54:57;;;;;;;6.00;5.40;;;;;;;;;;107880;1252;22815;-81
2023/07/09 05:57:23;;;;;;;7.60;5.00;;;;;;;;;;107912;1252;22538;-81
2023/07/09 05:59:49;;;;;;;6.90;5.20;;;;;;;;;;107919;1253;22529;-80
2023/07/09 06:02:18;;;;;;;6.00;4.10;;;;;;;;;;107894;1252;22675;-78
2023/07/09 06:04:45;;;;;;;7.00;4.80;;;;;;;;;;107934;1251;24118;-80
2023/07/09 06:07:13;;;;;;;6.00;4.20;;;;;;;;;;107905;1252;25358;-79
2023/07/09 06:09:39;;;;;;;5.70;4.70;;;;;;;;;;107438;1251;22514;-79
2023/07/09 06:12:06;;;;;;;6.30;4.40;;;;;;;;;;107445;1251;22559;-78
2023/07/09 06:14:32;;;;;;;8.50;4.70;;;;;;;;;;108083;1251;22518;-78
2023/07/09 06:16:59;;;;;;;6.20;4.70;;;;;;;;;;107861;1253;23202;-79
2023/07/09 06:19:26;;;;;;;6.60;4.40;;;;;;;;;;107398;1253;24345;-79
2023/07/09 06:21:52;;;;;;;5.20;3.80;;;;;;;;;;107442;1251;22546;-79
2023/07/09 06:24:19;;;;;;;5.70;4.20;;;;;;;;;;107409;1254;22555;-79
2023/07/09 06:26:45;;;;;;;7.10;4.90;;;;;;;;;;107441;1254;22533;-80
2023/07/09 06:29:11;;;;;;;8.20;5.10;;;;;;;;;;108099;1253;22535;-80
2023/07/09 06:31:40;;;;;;;6.30;4.90;;;;;;;;;;107878;1253;22519;-81
2023/07/09 06:34:07;;;;;;;5.50;4.30;;;;;;;;;;107910;1251;22639;-80
2023/07/09 06:36:33;;;;;;;6.90;4.50;;;;;;;;;;107912;1251;25358;-80
2023/07/09 06:39:00;;;;;;;6.40;4.40;;;;;;;;;;107929;1253;25386;-80
2023/07/09 06:41:26;;;;;;;17.60;11.70;;;;;;;;;;107951;1251;22780;-80
2023/07/09 06:43:53;;;;;;;11.90;5.80;;;;;;;;;;107893;1253;22614;-80
2023/07/09 06:46:19;;;;;;;6.00;4.00;;;;;;;;;;107915;1253;22697;-80
2023/07/09 06:48:45;;;;;;;11.00;5.10;;;;;;;;;;107904;1251;22740;-80
2023/07/09 06:51:12;;;;;;;8.60;5.50;;;;;;;;;;107861;1251;22605;-80
2023/07/09 06:53:39;;;;;;;5.60;4.40;;;;;;;;;;107871;1254;22517;-80
2023/07/09 06:56:05;;;;;;;5.90;4.10;;;;;;;;;;107884;1251;22778;-80
2023/07/09 06:58:33;;;;;;;9.20;5.30;;;;;;;;;;107865;1253;23026;-80
2023/07/09 07:01:03;;;;;;;6.60;4.80;;;;;;;;;;107874;1255;22577;-80
2023/07/09 07:03:30;;;;;;;5.00;3.40;;;;;;;;;;107921;1255;25262;-80
2023/07/09 07:05:57;;;;;;;6.50;5.00;;;;;;;;;;107862;1253;24242;-80
2023/07/09 07:08:24;;;;;;;5.60;4.50;;;;;;;;;;107835;1251;143896;-80
2023/07/09 07:10:51;;;;;;;3.70;3.20;;;;;;;;;;107893;1253;25379;-80
2023/07/09 07:13:18;;;;;;;4.50;3.60;;;;;;;;;;108053;1251;22596;-80
2023/07/09 07:15:47;;;;;;;5.10;4.60;;;;;;;;;;107933;1253;22663;-80
2023/07/09 07:18:13;;;;;;;5.60;4.60;;;;;;;;;;107941;1253;22524;-80
2023/07/09 07:20:40;;;;;;;9.70;5.10;;;;;;;;;;107892;1250;22547;-80
2023/07/09 07:23:06;;;;;;;7.60;5.00;;;;;;;;;;107881;1252;24203;-80
2023/07/09 07:25:33;;;;;;;11.30;4.20;;;;;;;;;;107890;1253;26335;-80
2023/07/09 07:27:59;;;;;;;4.60;3.60;;;;;;;;;;107850;1251;23574;-80
2023/07/09 07:30:25;;;;;;;3.80;2.90;;;;;;;;;;107836;1253;22573;-80
2023/07/09 07:32:52;;;;;;;5.30;3.10;;;;;;;;;;108134;1253;22592;-81
2023/07/09 07:35:19;;;;;;;9.00;3.70;;;;;;;;;;107911;1251;25555;-81
2023/07/09 07:37:45;;;;;;;5.10;3.50;;;;;;;;;;107854;1253;25493;-81
2023/07/09 07:40:11;;;;;;;4.40;3.70;;;;;;;;;;107928;1255;25198;-81
2023/07/09 07:42:38;;;;;;;3.70;3.20;;;;;;;;;;107897;1251;26355;-81
2023/07/09 07:45:05;;;;;;;4.70;3.50;;;;;;;;;;107883;1252;22524;-81
2023/07/09 07:47:31;;;;;;;3.80;3.00;;;;;;;;;;107928;1254;26477;-81
2023/07/09 07:49:57;;;;;;;6.00;3.30;;;;;;;;;;107902;1255;22841;-81
2023/07/09 07:52:25;;;;;;;4.50;3.20;;;;;;;;;;107917;1251;24102;-81
2023/07/09 07:54:52;;;;;;;5.60;2.80;;;;;;;;;;107978;1251;22557;-81
2023/07/09 07:57:18;;;;;;;5.20;3.20;;;;;;;;;;107921;1251;22541;-81
2023/07/09 07:59:46;;;;;;;5.80;4.50;;;;;;;;;;107949;1255;22532;-81
2023/07/09 08:02:13;;;;;;;4.70;3.60;;;;;;;;;;107963;1255;25486;-81
2023/07/09 08:04:40;;;;;;;7.10;3.20;;;;;;;;;;108526;1253;22546;-81
2023/07/09 08:07:09;;;;;;;6.20;3.10;;;;;;;;;;107933;1254;22603;-81
2023/07/09 08:09:36;;;;;;;4.50;2.70;;;;;;;;;;107959;1251;22693;-81
2023/07/09 08:12:08;;;;;;;4.00;2.50;;;;;;;;;;107937;1251;23294;-81
2023/07/09 08:14:35;;;;;;;3.90;2.70;;;;;;;;;;108086;1253;23108;-81
2023/07/09 08:17:02;;;;;;;2.70;2.30;;;;;;;;;;107905;1249;22528;-81
2023/07/09 08:19:28;;;;;;;3.40;2.70;;;;;;;;;;108175;1254;22516;-81
2023/07/09 08:21:55;;;;;;;3.70;2.60;;;;;;;;;;107965;1249;22529;-81
2023/07/09 08:24:21;;;;;;;5.00;2.60;;;;;;;;;;107937;1252;25459;-82
2023/07/09 08:26:47;;;;;;;6.80;2.30;;;;;;;;;;107891;1253;22518;-82
2023/07/09 08:29:14;;;;;;;4.30;2.70;;;;;;;;;;108064;1251;22534;-81
2023/07/09 08:31:41;;;;;;;4.80;3.00;;;;;;;;;;107910;1255;22532;-82
2023/07/09 08:34:08;;;;;;;7.20;2.80;;;;;;;;;;108083;1254;24136;-82
2023/07/09 08:36:34;;;;;;;3.80;2.40;;;;;;;;;;107822;1254;22520;-82
2023/07/09 08:39:01;;;;;;;3.20;2.20;;;;;;;;;;107972;1255;22608;-81
2023/07/09 08:41:43;;;;;;;3.30;2.40;;;;;;;;;;107883;1251;26379;-82
2023/07/09 08:44:09;;;;;;;2.90;2.10;;;;;;;;;;107892;1253;22708;-82
2023/07/09 08:46:41;;;;;;;4.70;2.40;;;;;;;;;;107876;1253;22535;-81
2023/07/09 08:49:13;;;;;;;3.60;2.40;;;;;;;;;;107927;1251;23217;-81
2023/07/09 08:51:40;;;;;;;3.10;1.90;;;;;;;;;;107935;1250;22539;-81
2023/07/09 08:54:14;;;;;;;4.00;2.10;;;;;;;;;;107911;1250;22578;-82
2023/07/09 08:56:41;;;;;;;3.10;2.30;;;;;;;;;;107962;1254;22608;-81
2023/07/09 08:59:07;;;;;;;2.70;1.90;;;;;;;;;;107931;1251;22537;-81
2023/07/09 09:01:35;;;;;;;2.50;1.90;;;;;;;;;;107875;1252;24263;-81
2023/07/09 09:04:31;;;;;;;5.40;2.20;;;;;;;;;;107979;1252;22531;-81
2023/07/09 09:07:00;;;;;;;2.90;2.00;;;;;;;;;;107780;1255;25497;-81
2023/07/09 09:09:32;;;;;;;3.40;2.00;;;;;;;;;;107832;1251;24252;-81
2023/07/09 09:11:59;;;;;;;2.60;2.00;;;;;;;;;;107852;1253;23246;-81
2023/07/09 09:14:33;;;;;;;2.80;1.90;;;;;;;;;;107974;1253;22663;-81
2023/07/09 09:16:59;;;;;;;5.70;2.30;;;;;;;;;;107881;1255;25410;-81
2023/07/09 09:19:27;;;;;;;4.60;2.40;;;;;;;;;;107826;1257;25466;-81
2023/07/09 09:21:58;;;;;;;3.10;1.80;;;;;;;;;;107915;1254;22554;-81
2023/07/09 09:24:31;;;;;;;3.00;1.80;;;;;;;;;;107838;1251;23229;-81
2023/07/09 09:26:58;;;;;;;3.20;1.70;;;;;;;;;;107941;1255;22523;-81
2023/07/09 09:29:24;;;;;;;2.50;2.30;;;;;;;;;;107898;1251;25385;-81
2023/07/09 09:31:52;;;;;;;3.20;2.30;;;;;;;;;;107763;1252;24233;-81
2023/07/09 09:34:19;;;;;;;4.50;2.40;;;;;;;;;;107786;1256;22757;-81
2023/07/09 09:36:45;;;;;;;4.20;2.30;;;;;;;;;;107945;1253;24331;-81
2023/07/09 09:39:12;;;;;;;3.00;2.20;;;;;;;;;;107963;1251;22526;-81
2023/07/09 09:41:38;;;;;;;5.30;2.40;;;;;;;;;;107932;1256;24285;-82
2023/07/09 09:44:06;;;;;;;2.80;1.80;;;;;;;;;;107909;1253;24193;-81
2023/07/09 09:46:32;;;;;;;2.80;2.30;;;;;;;;;;107932;1251;25514;-81
2023/07/09 09:48:59;;;;;;;3.00;2.20;;;;;;;;;;107937;1251;22532;-82
2023/07/09 09:51:26;;;;;;;2.60;2.10;;;;;;;;;;107964;1255;25511;-82
2023/07/09 09:53:55;;;;;;;3.80;2.30;;;;;;;;;;107944;1253;24873;-82
2023/07/09 09:56:26;;;;;;;3.10;2.50;;;;;;;;;;107827;1256;22530;-82
2023/07/09 09:58:53;;;;;;;3.90;2.10;;;;;;;;;;107978;1251;26456;-82
2023/07/09 10:01:19;;;;;;;;;;;;;;;;;;107945;1251;23230;-82
2023/07/09 10:03:51;;;;;;;3.30;2.30;;;;;;;;;;107926;1251;24320;-82
2023/07/09 10:06:19;;;;;;;6.00;2.40;;;;;;;;;;107877;1251;22537;-82
2023/07/09 10:08:54;;;;;;;3.60;1.90;;;;;;;;;;107964;1251;22554;-82
2023/07/09 10:11:36;;;;;;;3.80;1.70;;;;;;;;;;107905;1251;25385;-82
2023/07/09 10:14:04;;;;;;;5.30;2.00;;;;;;;;;;107861;1251;22566;-82
2023/07/09 10:16:38;;;;;;;4.20;1.90;;;;;;;;;;107986;1251;22997;-82
2023/07/09 10:19:12;;;;;;;4.00;2.10;;;;;;;;;;107818;1257;25225;-82
2023/07/09 10:21:41;;;;;;;4.40;2.10;;;;;;;;;;107881;1254;23780;-82
2023/07/09 10:24:14;;;;;;;3.30;1.90;;;;;;;;;;107980;1254;25305;-82
2023/07/09 10:27:01;;;;;;;4.00;2.60;;;;;;;;;;107898;1251;22912;-81
2023/07/09 10:29:47;;;;;;;2.50;2.30;;;;;;;;;;107831;1255;22640;-81
2023/07/09 10:32:14;;;;;;;2.90;2.20;;;;;;;;;;107868;1250;22551;-82
2023/07/09 10:34:43;;;;;;;5.40;2.30;;;;;;;;;;107961;1251;23787;-82
2023/07/09 10:37:20;;;;;;;4.40;2.30;;;;;;;;;;107999;1255;22552;-83
2023/07/09 10:39:47;;;;;;;;;;;;;;;;;;107955;1256;22507;-83
2023/07/09 10:42:18;;;;;;;2.70;1.90;;;;;;;;;;107967;1251;22749;-83
2023/07/09 10:44:46;;;;;;;4.60;2.30;;;;;;;;;;107911;1251;22522;-83
2023/07/09 10:47:26;;;;;;;4.90;2.20;;;;;;;;;;107925;1254;25915;-83
2023/07/09 10:49:53;;;;;;;2.20;1.90;;;;;;;;;;107790;1251;23801;-83
2023/07/09 10:52:23;;;;;;;2.60;2.20;;;;;;;;;;107846;1251;22514;-83
2023/07/09 10:55:00;;;;;;;3.90;2.60;;;;;;;;;;107936;1252;22781;-83
2023/07/09 10:57:44;;;;;;;3.70;2.40;;;;;;;;;;107941;1251;22547;-83
2023/07/09 11:00:20;;;;;;;5.00;2.70;;;;;;;;;;107948;1251;22914;-83
2023/07/09 11:02:48;;;;;;;5.00;2.30;;;;;;;;;;107945;1251;22534;-83
2023/07/09 11:05:14;;;;;;;3.00;1.80;;;;;;;;;;107900;1251;22528;-83
2023/07/09 11:07:46;;;;;;;2.50;1.70;;;;;;;;;;107886;1251;26482;-83
2023/07/09 11:10:42;;;;;;;2.30;2.10;;;;;;;;;;107939;1251;23876;-83
2023/07/09 11:13:14;;;;;;;3.30;2.20;;;;;;;;;;107799;1251;25294;-83
2023/07/09 11:15:41;;;;;;;3.00;2.30;;;;;;;;;;107911;1251;25472;-82
2023/07/09 11:18:10;;;;;;;4.10;2.00;;;;;;;;;;107884;1251;24396;-83
2023/07/09 11:20:42;;;;;;;3.50;2.00;;;;;;;;;;107726;1251;22588;-83
2023/07/09 11:23:22;;;;;;;3.00;2.30;;;;;;;;;;107919;1250;22524;-82
2023/07/09 11:25:49;;;;;;;2.80;2.30;;;;;;;;;;108061;1254;25501;-82
2023/07/09 11:28:16;;;;;;;3.90;2.10;;;;;;;;;;107882;1251;22823;-82
2023/07/09 11:30:46;;;;;;;5.30;2.30;;;;;;;;;;107928;1254;22816;-82
2023/07/09 11:33:20;;;;;;;3.20;2.10;;;;;;;;;;107793;1252;25356;-83
2023/07/09 11:35:51;;;;;;;2.30;1.90;;;;;;;;;;107762;1251;26599;-83
2023/07/09 11:38:21;;;;;;;7.90;2.90;;;;;;;;;;107900;1251;22546;-82
2023/07/09 11:40:51;;;;;;;3.00;2.30;;;;;;;;;;107881;1251;22574;-82
2023/07/09 11:43:36;;;;;;;4.00;2.40;;;;;;;;;;107927;1251;22584;-83
2023/07/09 11:46:21;;;;;;;6.00;2.90;;;;;;;;;;107803;1254;22545;-83
2023/07/09 11:48:48;;;;;;;3.40;2.10;;;;;;;;;;107903;1251;24093;-82
2023/07/09 11:51:16;;;;;;;2.90;2.40;;;;;;;;;;107869;1254;24346;-83
2023/07/09 11:53:52;;;;;;;5.00;2.40;;;;;;;;;;107976;1254;25249;-82
2023/07/09 11:56:19;;;;;;;2.70;2.20;;;;;;;;;;108612;1251;25467;-83
2023/07/09 11:58:45;;;;;;;;;;;;;;;;;;107951;1251;22517;-83
2023/07/09 12:01:13;;;;;;;2.60;2.00;;;;;;;;;;107947;1251;25285;-82
2023/07/09 12:03:40;;;;;;;2.60;2.10;;;;;;;;;;107820;1251;25407;-82
2023/07/09 12:06:25;;;;;;;3.90;2.10;;;;;;;;;;107802;1251;24242;-82
2023/07/09 12:08:52;;;;;;;2.80;2.10;;;;;;;;;;108007;1251;25443;-82
2023/07/09 12:11:28;;;;;;;2.80;2.40;;;;;;;;;;107859;1251;24336;-82
2023/07/09 12:14:00;;;;;;;3.50;2.50;;;;;;;;;;107922;1251;22646;-82
2023/07/09 12:16:28;;;;;;;4.50;2.60;;;;;;;;;;107903;1256;22568;-82
2023/07/09 12:18:54;;;;;;;;;;;;;;;;;;107881;1255;22585;-82
2023/07/09 12:21:21;;;;;;;3.50;2.60;;;;;;;;;;107904;1251;22530;-82
2023/07/09 12:23:48;;;;;;;8.30;3.20;;;;;;;;;;107955;1251;24310;-82
2023/07/09 12:26:15;;;;;;;3.50;2.40;;;;;;;;;;107918;1251;24194;-82
2023/07/09 12:28:41;;;;;;;4.00;3.00;;;;;;;;;;107954;1251;22582;-82
2023/07/09 12:31:12;;;;;;;3.80;2.80;;;;;;;;;;107896;1251;22528;-82
2023/07/09 12:33:45;;;;;;;3.90;2.70;;;;;;;;;;107875;1255;24494;-82
2023/07/09 12:36:12;;;;;;;3.20;2.60;;;;;;;;;;107886;1251;24376;-82
2023/07/09 12:38:42;;;;;;;5.20;2.50;;;;;;;;;;107896;1257;22566;-82
2023/07/09 12:41:36;;;;;;;2.70;2.30;;;;;;;;;;107919;1255;22558;-82
2023/07/09 12:44:02;;;;;;;4.60;2.50;;;;;;;;;;107920;1251;22527;-83
2023/07/09 12:46:29;;;;;;;5.20;2.30;;;;;;;;;;107786;1257;22559;-83
2023/07/09 12:48:55;;;;;;;4.10;2.50;;;;;;;;;;107884;1251;22523;-83
2023/07/09 12:51:24;;;;;;;5.10;2.50;;;;;;;;;;107864;1251;22661;-83
2023/07/09 12:54:00;;;;;;;5.50;2.70;;;;;;;;;;108127;1251;24228;-82
2023/07/09 12:56:26;;;;;;;3.60;2.60;;;;;;;;;;107715;1252;22530;-82
2023/07/09 12:58:56;;;;;;;3.90;2.60;;;;;;;;;;107933;1251;22574;-82
2023/07/09 13:01:23;;;;;;;3.80;2.30;;;;;;;;;;107917;1251;22644;-83
2023/07/09 13:03:49;;;;;;;;;;;;;;;;;;107779;1251;22681;-82
2023/07/09 13:06:28;;;;;;;3.40;2.90;;;;;;;;;;107951;1251;22528;-83
2023/07/09 13:08:56;;;;;;;4.00;2.60;;;;;;;;;;108145;1251;24248;-82
2023/07/09 13:11:22;;;;;;;5.80;2.70;;;;;;;;;;107911;1251;24192;-82
2023/07/09 13:13:59;;;;;;;3.10;2.50;;;;;;;;;;108129;1251;22655;-82
2023/07/09 13:16:25;;;;;;;5.30;3.10;;;;;;;;;;107933;1251;22531;-82
2023/07/09 13:18:52;;;;;;;3.40;2.90;;;;;;;;;;107922;1254;23016;-83
2023/07/09 13:21:18;;;;;;;4.20;2.50;;;;;;;;;;107952;1251;22550;-83
2023/07/09 13:23:46;;;;;;;3.20;2.50;;;;;;;;;;107928;1251;25380;-83
2023/07/09 13:26:13;;;;;;;2.60;2.40;;;;;;;;;;107859;1251;23648;-82
2023/07/09 13:28:39;;;;;;;3.00;2.00;;;;;;;;;;108399;1251;22706;-82
2023/07/09 13:31:10;;;;;;;3.60;2.40;;;;;;;;;;107911;1251;22518;-82
2023/07/09 13:33:37;;;;;;;4.50;2.60;;;;;;;;;;108384;1251;22673;-82
2023/07/09 13:36:04;;;;;;;4.40;2.40;;;;;;;;;;107955;1251;22675;-82
2023/07/09 13:38:30;;;;;;;4.40;2.40;;;;;;;;;;107703;1251;25366;-82
2023/07/09 13:40:57;;;;;;;3.30;2.60;;;;;;;;;;108063;1251;23476;-82
2023/07/09 13:43:31;;;;;;;4.10;2.60;;;;;;;;;;107900;1251;25341;-82
2023/07/09 13:45:58;;;;;;;4.50;3.40;;;;;;;;;;108084;1249;22548;-82
2023/07/09 13:48:25;;;;;;;3.60;2.80;;;;;;;;;;107985;1251;24227;-82
2023/07/09 13:50:51;;;;;;;8.20;3.10;;;;;;;;;;107929;1251;25065;-82
2023/07/09 13:53:23;;;;;;;4.00;2.70;;;;;;;;;;108019;1251;23347;-82
2023/07/09 13:55:50;;;;;;;6.70;2.70;;;;;;;;;;107963;1251;22707;-82
2023/07/09 13:58:17;;;;;;;3.00;2.70;;;;;;;;;;107927;1251;22594;-82
2023/07/09 14:00:44;;;;;;;;;;;;;;;;;;108018;1252;22505;-82
2023/07/09 14:03:13;;;;;;;4.40;2.40;;;;;;;;;;107994;1251;25208;-82
2023/07/09 14:05:39;;;;;;;3.80;2.30;;;;;;;;;;108320;1251;25500;-82
2023/07/09 14:08:07;;;;;;;4.40;2.60;;;;;;;;;;108014;1254;26514;-82
2023/07/09 14:10:33;;;;;;;;;;;;;;;;;;107983;1251;25388;-82
2023/07/09 14:13:00;;;;;;;5.10;2.70;;;;;;;;;;108084;1251;22606;-82
2023/07/09 14:15:26;;;;;;;6.50;3.00;;;;;;;;;;107966;1251;24267;-82
2023/07/09 14:17:54;;;;;;;5.10;3.00;;;;;;;;;;108007;1251;22525;-82
2023/07/09 14:20:21;;;;;;;4.10;3.10;;;;;;;;;;107907;1251;22592;-81
2023/07/09 14:22:47;;;;;;;5.30;2.70;;;;;;;;;;108046;1251;23138;-82
2023/07/09 14:25:15;;;;;;;3.40;2.70;;;;;;;;;;107949;1251;23031;-82
2023/07/09 14:27:41;;;;;;;5.00;3.00;;;;;;;;;;107979;1254;22537;-82
2023/07/09 14:30:09;;;;;;;4.20;2.90;;;;;;;;;;108034;1251;22544;-82
2023/07/09 14:32:41;;;;;;;6.60;2.60;;;;;;;;;;108024;1251;25464;-82
2023/07/09 14:35:17;;;;;;;6.00;2.70;;;;;;;;;;108115;1251;22527;-82
2023/07/09 14:37:45;;;;;;;3.50;2.60;;;;;;;;;;107996;1251;24221;-82